sensor_id;sensor_type;location;lat;lon;timestamp;pressure;altitude;pressure_sealevel;temperature;humidity
64025;BME280;50266;57.446;26.936;2024-02-23T00:00:57;97871.33;;;1.7;100.0
64025;BME280;50266;57.446;26.936;2024-02-23T00:01:57;97877.0;;;1.69;100.0
64025;BME280;50266;57.446;26.936;2024-02-23T00:02:57;97880.25;;;1.68;100.0
64025;BME280;50266;57.446;26.936;2024-02-23T00:03:57;97870.27;;;1.68;100.0
64025;BME280;50266;57.446;26.936;2024-02-23T00:04:57;97878.21;;;1.67;100.0
64025;BME280;50266;57.446;26.936;2024-02-23T00:05:58;97862.45;;;1.65;100.0
64025;BME280;50266;57.446;26.936;2024-02-23T00:06:57;97863.47;;;1.68;100.0
64025;BME280;50266;57.446;26.936;2024-02-23T00:07:57;97866.84;;;1.67;100.0
64025;BME280;50266;57.446;26.936;2024-02-23T00:08:57;97863.27;;;1.65;100.0
64025;BME280;50266;57.446;26.936;2024-02-23T00:09:57;97858.09;;;1.69;100.0
64025;BME280;50266;57.446;26.936;2024-02-23T00:10:57;97860.75;;;1.68;100.0
64025;BME280;50266;57.446;26.936;2024-02-23T00:11:57;97859.07;;;1.69;100.0
64025;BME280;50266;57.446;26.936;2024-02-23T00:12:57;97860.5;;;1.64;100.0
64025;BME280;50266;57.446;26.936;2024-02-23T00:13:57;97854.98;;;1.63;100.0
64025;BME280;50266;57.446;26.936;2024-02-23T00:14:57;97851.67;;;1.66;100.0
64025;BME280;50266;57.446;26.936;2024-02-23T00:15:58;97849.5;;;1.65;100.0
64025;BME280;50266;57.446;26.936;2024-02-23T00:16:58;97845.06;;;1.66;100.0
64025;BME280;50266;57.446;26.936;2024-02-23T00:17:58;97851.41;;;1.64;100.0
64025;BME280;50266;57.446;26.936;2024-02-23T00:18:58;97839.81;;;1.64;100.0
64025;BME280;50266;57.446;26.936;2024-02-23T00:19:58;97842.24;;;1.64;100.0
64025;BME280;50266;57.446;26.936;2024-02-23T00:20:58;97846.3;;;1.65;100.0
64025;BME280;50266;57.446;26.936;2024-02-23T00:21:58;97840.07;;;1.65;100.0
64025;BME280;50266;57.446;26.936;2024-02-23T00:22:58;97837.34;;;1.64;100.0
64025;BME280;50266;57.446;26.936;2024-02-23T00:23:58;97833.72;;;1.65;100.0
64025;BME280;50266;57.446;26.936;2024-02-23T00:24:58;97827.56;;;1.63;100.0
64025;BME280;50266;57.446;26.936;2024-02-23T00:25:58;97837.0;;;1.64;100.0
64025;BME280;50266;57.446;26.936;2024-02-23T00:26:58;97830.02;;;1.63;100.0
64025;BME280;50266;57.446;26.936;2024-02-23T00:27:58;97840.34;;;1.64;100.0
64025;BME280;50266;57.446;26.936;2024-02-23T00:28:58;97834.08;;;1.63;100.0
64025;BME280;50266;57.446;26.936;2024-02-23T00:29:58;97834.36;;;1.63;100.0
64025;BME280;50266;57.446;26.936;2024-02-23T00:30:58;97832.27;;;1.63;100.0
64025;BME280;50266;57.446;26.936;2024-02-23T00:31:58;97833.02;;;1.63;100.0
64025;BME280;50266;57.446;26.936;2024-02-23T00:32:58;97833.52;;;1.63;100.0
64025;BME280;50266;57.446;26.936;2024-02-23T00:33:58;97834.19;;;1.65;100.0
64025;BME280;50266;57.446;26.936;2024-02-23T00:34:58;97833.99;;;1.64;100.0
64025;BME280;50266;57.446;26.936;2024-02-23T00:35:58;97832.88;;;1.6;100.0
64025;BME280;50266;57.446;26.936;2024-02-23T00:36:58;97836.95;;;1.61;100.0
64025;BME280;50266;57.446;26.936;2024-02-23T00:37:58;97833.19;;;1.61;100.0
64025;BME280;50266;57.446;26.936;2024-02-23T00:38:58;97827.33;;;1.59;100.0
64025;BME280;50266;57.446;26.936;2024-02-23T00:39:58;97822.91;;;1.59;100.0
64025;BME280;50266;57.446;26.936;2024-02-23T00:40:58;97827.25;;;1.59;100.0
64025;BME280;50266;57.446;26.936;2024-02-23T00:41:58;97824.21;;;1.59;100.0
64025;BME280;50266;57.446;26.936;2024-02-23T00:42:58;97817.67;;;1.59;100.0
64025;BME280;50266;57.446;26.936;2024-02-23T00:43:58;97823.98;;;1.59;100.0
64025;BME280;50266;57.446;26.936;2024-02-23T00:44:58;97823.31;;;1.6;100.0
64025;BME280;50266;57.446;26.936;2024-02-23T00:45:58;97818.77;;;1.62;100.0
64025;BME280;50266;57.446;26.936;2024-02-23T00:46:58;97821.7;;;1.62;100.0
64025;BME280;50266;57.446;26.936;2024-02-23T00:47:58;97825.28;;;1.62;100.0
64025;BME280;50266;57.446;26.936;2024-02-23T00:48:58;97821.13;;;1.59;100.0
64025;BME280;50266;57.446;26.936;2024-02-23T00:49:58;97819.83;;;1.61;100.0
64025;BME280;50266;57.446;26.936;2024-02-23T00:50:58;97814.06;;;1.59;100.0
64025;BME280;50266;57.446;26.936;2024-02-23T00:51:58;97819.28;;;1.63;100.0
64025;BME280;50266;57.446;26.936;2024-02-23T00:52:58;97820.19;;;1.63;100.0
64025;BME280;50266;57.446;26.936;2024-02-23T00:53:58;97820.84;;;1.63;100.0
64025;BME280;50266;57.446;26.936;2024-02-23T00:54:58;97822.81;;;1.63;100.0
64025;BME280;50266;57.446;26.936;2024-02-23T00:55:58;97818.07;;;1.6;100.0
64025;BME280;50266;57.446;26.936;2024-02-23T00:56:58;97816.47;;;1.58;100.0
64025;BME280;50266;57.446;26.936;2024-02-23T00:57:58;97810.14;;;1.59;100.0
64025;BME280;50266;57.446;26.936;2024-02-23T00:58:58;97815.16;;;1.61;100.0
64025;BME280;50266;57.446;26.936;2024-02-23T00:59:58;97815.84;;;1.63;100.0
64025;BME280;50266;57.446;26.936;2024-02-23T01:00:59;97813.97;;;1.61;100.0
64025;BME280;50266;57.446;26.936;2024-02-23T01:01:58;97818.62;;;1.63;100.0
64025;BME280;50266;57.446;26.936;2024-02-23T01:02:58;97819.88;;;1.62;100.0
64025;BME280;50266;57.446;26.936;2024-02-23T01:03:58;97821.34;;;1.6;100.0
64025;BME280;50266;57.446;26.936;2024-02-23T01:04:58;97814.5;;;1.56;100.0
64025;BME280;50266;57.446;26.936;2024-02-23T01:05:58;97817.38;;;1.58;100.0
64025;BME280;50266;57.446;26.936;2024-02-23T01:06:58;97816.92;;;1.55;100.0
64025;BME280;50266;57.446;26.936;2024-02-23T01:07:58;97815.52;;;1.58;100.0
64025;BME280;50266;57.446;26.936;2024-02-23T01:08:58;97815.31;;;1.56;100.0
64025;BME280;50266;57.446;26.936;2024-02-23T01:09:58;97811.39;;;1.56;100.0
64025;BME280;50266;57.446;26.936;2024-02-23T01:10:58;97809.39;;;1.58;100.0
64025;BME280;50266;57.446;26.936;2024-02-23T01:11:59;97808.98;;;1.6;100.0
64025;BME280;50266;57.446;26.936;2024-02-23T01:12:58;97801.94;;;1.63;100.0
64025;BME280;50266;57.446;26.936;2024-02-23T01:13:58;97805.7;;;1.58;100.0
64025;BME280;50266;57.446;26.936;2024-02-23T01:14:58;97801.8;;;1.55;100.0
64025;BME280;50266;57.446;26.936;2024-02-23T01:15:59;97798.91;;;1.57;100.0
64025;BME280;50266;57.446;26.936;2024-02-23T01:16:59;97796.27;;;1.61;100.0
64025;BME280;50266;57.446;26.936;2024-02-23T01:17:59;97797.77;;;1.61;100.0
64025;BME280;50266;57.446;26.936;2024-02-23T01:18:59;97794.53;;;1.61;100.0
64025;BME280;50266;57.446;26.936;2024-02-23T01:20:00;97797.36;;;1.55;100.0
64025;BME280;50266;57.446;26.936;2024-02-23T01:21:00;97796.29;;;1.61;100.0
64025;BME280;50266;57.446;26.936;2024-02-23T01:22:00;97797.31;;;1.56;100.0
64025;BME280;50266;57.446;26.936;2024-02-23T01:23:00;97791.88;;;1.57;100.0
64025;BME280;50266;57.446;26.936;2024-02-23T01:24:00;97790.07;;;1.57;100.0
64025;BME280;50266;57.446;26.936;2024-02-23T01:25:00;97778.81;;;1.59;100.0
64025;BME280;50266;57.446;26.936;2024-02-23T01:26:00;97789.3;;;1.61;100.0
64025;BME280;50266;57.446;26.936;2024-02-23T01:27:00;97778.98;;;1.61;100.0
64025;BME280;50266;57.446;26.936;2024-02-23T01:28:00;97775.47;;;1.59;100.0
64025;BME280;50266;57.446;26.936;2024-02-23T01:29:00;97784.58;;;1.61;100.0
64025;BME280;50266;57.446;26.936;2024-02-23T01:30:00;97781.23;;;1.6;100.0
64025;BME280;50266;57.446;26.936;2024-02-23T01:31:00;97775.44;;;1.57;100.0
64025;BME280;50266;57.446;26.936;2024-02-23T01:32:00;97781.2;;;1.57;100.0
64025;BME280;50266;57.446;26.936;2024-02-23T01:33:00;97776.92;;;1.54;100.0
64025;BME280;50266;57.446;26.936;2024-02-23T01:34:00;97780.38;;;1.54;100.0
64025;BME280;50266;57.446;26.936;2024-02-23T01:35:00;97788.35;;;1.58;100.0
64025;BME280;50266;57.446;26.936;2024-02-23T01:36:00;97787.48;;;1.59;100.0
64025;BME280;50266;57.446;26.936;2024-02-23T01:37:00;97784.86;;;1.55;100.0
64025;BME280;50266;57.446;26.936;2024-02-23T01:38:00;97789.73;;;1.55;100.0
64025;BME280;50266;57.446;26.936;2024-02-23T01:39:00;97787.06;;;1.54;100.0
64025;BME280;50266;57.446;26.936;2024-02-23T01:40:00;97783.16;;;1.54;100.0
64025;BME280;50266;57.446;26.936;2024-02-23T01:41:00;97790.48;;;1.53;100.0
64025;BME280;50266;57.446;26.936;2024-02-23T01:42:00;97783.84;;;1.53;100.0
64025;BME280;50266;57.446;26.936;2024-02-23T01:43:01;97782.27;;;1.51;100.0
64025;BME280;50266;57.446;26.936;2024-02-23T01:44:00;97784.51;;;1.52;100.0
64025;BME280;50266;57.446;26.936;2024-02-23T01:45:00;97781.81;;;1.53;100.0
64025;BME280;50266;57.446;26.936;2024-02-23T01:46:02;97782.15;;;1.52;100.0
64025;BME280;50266;57.446;26.936;2024-02-23T01:47:01;97770.25;;;1.51;100.0
64025;BME280;50266;57.446;26.936;2024-02-23T01:48:00;97771.76;;;1.53;100.0
64025;BME280;50266;57.446;26.936;2024-02-23T01:49:00;97773.8;;;1.52;100.0
64025;BME280;50266;57.446;26.936;2024-02-23T01:50:01;97772.05;;;1.51;100.0
64025;BME280;50266;57.446;26.936;2024-02-23T01:51:01;97772.54;;;1.51;100.0
64025;BME280;50266;57.446;26.936;2024-02-23T01:52:01;97768.57;;;1.52;100.0
64025;BME280;50266;57.446;26.936;2024-02-23T01:53:01;97771.83;;;1.48;100.0
64025;BME280;50266;57.446;26.936;2024-02-23T01:54:01;97769.42;;;1.49;100.0
64025;BME280;50266;57.446;26.936;2024-02-23T01:55:01;97767.3;;;1.51;100.0
64025;BME280;50266;57.446;26.936;2024-02-23T01:56:01;97762.41;;;1.5;100.0
64025;BME280;50266;57.446;26.936;2024-02-23T01:57:01;97765.56;;;1.49;100.0
64025;BME280;50266;57.446;26.936;2024-02-23T01:58:03;97764.91;;;1.49;100.0
64025;BME280;50266;57.446;26.936;2024-02-23T01:59:04;97757.77;;;1.5;100.0
64025;BME280;50266;57.446;26.936;2024-02-23T02:00:04;97756.9;;;1.51;100.0
64025;BME280;50266;57.446;26.936;2024-02-23T02:01:04;97754.94;;;1.51;100.0
64025;BME280;50266;57.446;26.936;2024-02-23T02:02:04;97757.23;;;1.48;100.0
64025;BME280;50266;57.446;26.936;2024-02-23T02:03:04;97746.02;;;1.48;100.0
64025;BME280;50266;57.446;26.936;2024-02-23T02:04:05;97749.46;;;1.49;100.0
64025;BME280;50266;57.446;26.936;2024-02-23T02:05:05;97754.56;;;1.5;100.0
64025;BME280;50266;57.446;26.936;2024-02-23T02:06:05;97749.66;;;1.47;100.0
64025;BME280;50266;57.446;26.936;2024-02-23T02:07:05;97750.38;;;1.5;100.0
64025;BME280;50266;57.446;26.936;2024-02-23T02:08:05;97743.46;;;1.46;100.0
64025;BME280;50266;57.446;26.936;2024-02-23T02:09:05;97744.86;;;1.51;100.0
64025;BME280;50266;57.446;26.936;2024-02-23T02:10:06;97737.53;;;1.46;100.0
64025;BME280;50266;57.446;26.936;2024-02-23T02:11:05;97740.2;;;1.49;100.0
64025;BME280;50266;57.446;26.936;2024-02-23T02:12:05;97740.7;;;1.49;100.0
64025;BME280;50266;57.446;26.936;2024-02-23T02:13:05;97710.05;;;1.46;100.0
64025;BME280;50266;57.446;26.936;2024-02-23T02:14:05;97703.95;;;1.49;100.0
64025;BME280;50266;57.446;26.936;2024-02-23T02:15:05;97700.7;;;1.48;100.0
64025;BME280;50266;57.446;26.936;2024-02-23T02:16:05;97699.67;;;1.47;100.0
64025;BME280;50266;57.446;26.936;2024-02-23T02:17:05;97697.05;;;1.47;100.0
64025;BME280;50266;57.446;26.936;2024-02-23T02:18:05;97690.11;;;1.47;100.0
64025;BME280;50266;57.446;26.936;2024-02-23T02:19:05;97694.78;;;1.47;100.0
64025;BME280;50266;57.446;26.936;2024-02-23T02:20:05;97688.55;;;1.48;100.0
64025;BME280;50266;57.446;26.936;2024-02-23T02:21:05;97690.97;;;1.48;100.0
64025;BME280;50266;57.446;26.936;2024-02-23T02:22:05;97684.45;;;1.47;100.0
64025;BME280;50266;57.446;26.936;2024-02-23T02:23:05;97686.81;;;1.46;100.0
64025;BME280;50266;57.446;26.936;2024-02-23T02:24:06;97689.92;;;1.46;100.0
64025;BME280;50266;57.446;26.936;2024-02-23T02:25:05;97690.86;;;1.45;100.0
64025;BME280;50266;57.446;26.936;2024-02-23T02:26:05;97689.98;;;1.46;100.0
64025;BME280;50266;57.446;26.936;2024-02-23T02:27:05;97688.28;;;1.46;100.0
64025;BME280;50266;57.446;26.936;2024-02-23T02:28:06;97682.08;;;1.48;100.0
64025;BME280;50266;57.446;26.936;2024-02-23T02:29:06;97684.83;;;1.46;100.0
64025;BME280;50266;57.446;26.936;2024-02-23T02:30:06;97686.34;;;1.47;100.0
64025;BME280;50266;57.446;26.936;2024-02-23T02:31:06;97681.39;;;1.46;100.0
64025;BME280;50266;57.446;26.936;2024-02-23T02:32:06;97683.03;;;1.45;100.0
64025;BME280;50266;57.446;26.936;2024-02-23T02:33:06;97682.47;;;1.44;100.0
64025;BME280;50266;57.446;26.936;2024-02-23T02:34:06;97679.64;;;1.45;100.0
64025;BME280;50266;57.446;26.936;2024-02-23T02:35:06;97672.39;;;1.46;100.0
64025;BME280;50266;57.446;26.936;2024-02-23T02:36:06;97669.52;;;1.45;100.0
64025;BME280;50266;57.446;26.936;2024-02-23T02:37:06;97665.28;;;1.46;100.0
64025;BME280;50266;57.446;26.936;2024-02-23T02:38:06;97670.84;;;1.46;100.0
64025;BME280;50266;57.446;26.936;2024-02-23T02:39:06;97668.72;;;1.48;100.0
64025;BME280;50266;57.446;26.936;2024-02-23T02:40:06;97667.11;;;1.47;100.0
64025;BME280;50266;57.446;26.936;2024-02-23T02:41:06;97667.58;;;1.48;100.0
64025;BME280;50266;57.446;26.936;2024-02-23T02:42:06;97661.02;;;1.47;100.0
64025;BME280;50266;57.446;26.936;2024-02-23T02:43:06;97655.23;;;1.46;100.0
64025;BME280;50266;57.446;26.936;2024-02-23T02:44:06;97662.7;;;1.48;100.0
64025;BME280;50266;57.446;26.936;2024-02-23T02:45:06;97652.77;;;1.48;100.0
64025;BME280;50266;57.446;26.936;2024-02-23T02:46:06;97658.3;;;1.49;100.0
64025;BME280;50266;57.446;26.936;2024-02-23T02:47:06;97656.36;;;1.48;100.0
64025;BME280;50266;57.446;26.936;2024-02-23T02:48:07;97659.84;;;1.49;100.0
64025;BME280;50266;57.446;26.936;2024-02-23T02:49:06;97659.23;;;1.48;100.0
64025;BME280;50266;57.446;26.936;2024-02-23T02:50:06;97659.52;;;1.47;100.0
64025;BME280;50266;57.446;26.936;2024-02-23T02:51:06;97658.67;;;1.46;100.0
64025;BME280;50266;57.446;26.936;2024-02-23T02:52:06;97657.62;;;1.44;100.0
64025;BME280;50266;57.446;26.936;2024-02-23T02:53:06;97653.98;;;1.4;100.0
64025;BME280;50266;57.446;26.936;2024-02-23T02:54:06;97654.52;;;1.44;100.0
64025;BME280;50266;57.446;26.936;2024-02-23T02:55:07;97662.97;;;1.46;100.0
64025;BME280;50266;57.446;26.936;2024-02-23T02:56:06;97657.12;;;1.44;100.0
64025;BME280;50266;57.446;26.936;2024-02-23T02:57:06;97656.88;;;1.44;100.0
64025;BME280;50266;57.446;26.936;2024-02-23T02:58:06;97655.89;;;1.46;100.0
64025;BME280;50266;57.446;26.936;2024-02-23T02:59:06;97647.99;;;1.47;100.0
64025;BME280;50266;57.446;26.936;2024-02-23T03:00:09;97646.77;;;1.46;100.0
64025;BME280;50266;57.446;26.936;2024-02-23T03:01:06;97647.97;;;1.44;100.0
64025;BME280;50266;57.446;26.936;2024-02-23T03:02:06;97652.88;;;1.47;100.0
64025;BME280;50266;57.446;26.936;2024-02-23T03:03:06;97652.78;;;1.42;100.0
64025;BME280;50266;57.446;26.936;2024-02-23T03:04:07;97650.33;;;1.42;100.0
64025;BME280;50266;57.446;26.936;2024-02-23T03:05:07;97652.97;;;1.45;100.0
64025;BME280;50266;57.446;26.936;2024-02-23T03:06:06;97656.02;;;1.45;100.0
64025;BME280;50266;57.446;26.936;2024-02-23T03:07:06;97657.48;;;1.43;100.0
64025;BME280;50266;57.446;26.936;2024-02-23T03:08:06;97649.48;;;1.44;100.0
64025;BME280;50266;57.446;26.936;2024-02-23T03:09:06;97654.47;;;1.47;100.0
64025;BME280;50266;57.446;26.936;2024-02-23T03:10:07;97650.47;;;1.46;100.0
64025;BME280;50266;57.446;26.936;2024-02-23T03:11:06;97635.75;;;1.45;100.0
64025;BME280;50266;57.446;26.936;2024-02-23T03:12:07;97648.48;;;1.47;100.0
64025;BME280;50266;57.446;26.936;2024-02-23T03:13:07;97656.52;;;1.48;100.0
64025;BME280;50266;57.446;26.936;2024-02-23T03:14:07;97647.48;;;1.48;100.0
64025;BME280;50266;57.446;26.936;2024-02-23T03:15:07;97645.77;;;1.47;100.0
64025;BME280;50266;57.446;26.936;2024-02-23T03:16:13;97645.75;;;1.48;100.0
64025;BME280;50266;57.446;26.936;2024-02-23T03:17:10;97646.57;;;1.48;100.0
64025;BME280;50266;57.446;26.936;2024-02-23T03:18:10;97645.72;;;1.44;100.0
64025;BME280;50266;57.446;26.936;2024-02-23T03:19:10;97653.46;;;1.47;100.0
64025;BME280;50266;57.446;26.936;2024-02-23T03:20:10;97644.18;;;1.46;100.0
64025;BME280;50266;57.446;26.936;2024-02-23T03:21:10;97647.83;;;1.47;100.0
64025;BME280;50266;57.446;26.936;2024-02-23T03:22:10;97651.12;;;1.48;100.0
64025;BME280;50266;57.446;26.936;2024-02-23T03:23:10;97643.62;;;1.46;100.0
64025;BME280;50266;57.446;26.936;2024-02-23T03:24:10;97646.61;;;1.47;100.0
64025;BME280;50266;57.446;26.936;2024-02-23T03:25:10;97637.61;;;1.46;100.0
64025;BME280;50266;57.446;26.936;2024-02-23T03:26:10;97642.78;;;1.48;100.0
64025;BME280;50266;57.446;26.936;2024-02-23T03:27:10;97640.35;;;1.48;100.0
64025;BME280;50266;57.446;26.936;2024-02-23T03:28:10;97641.2;;;1.46;100.0
64025;BME280;50266;57.446;26.936;2024-02-23T03:29:10;97643.25;;;1.49;100.0
64025;BME280;50266;57.446;26.936;2024-02-23T03:30:10;97637.3;;;1.49;100.0
64025;BME280;50266;57.446;26.936;2024-02-23T03:31:10;97633.78;;;1.46;100.0
64025;BME280;50266;57.446;26.936;2024-02-23T03:32:10;97636.96;;;1.47;100.0
64025;BME280;50266;57.446;26.936;2024-02-23T03:33:10;97638.48;;;1.47;100.0
64025;BME280;50266;57.446;26.936;2024-02-23T03:34:10;97633.11;;;1.47;100.0
64025;BME280;50266;57.446;26.936;2024-02-23T03:35:10;97633.06;;;1.5;100.0
64025;BME280;50266;57.446;26.936;2024-02-23T03:36:10;97630.6;;;1.46;100.0
64025;BME280;50266;57.446;26.936;2024-02-23T03:37:10;97626.77;;;1.46;100.0
64025;BME280;50266;57.446;26.936;2024-02-23T03:38:10;97629.53;;;1.48;100.0
64025;BME280;50266;57.446;26.936;2024-02-23T03:39:10;97622.48;;;1.46;100.0
64025;BME280;50266;57.446;26.936;2024-02-23T03:40:10;97614.17;;;1.44;100.0
64025;BME280;50266;57.446;26.936;2024-02-23T03:41:10;97624.88;;;1.48;100.0
64025;BME280;50266;57.446;26.936;2024-02-23T03:42:10;97618.43;;;1.44;100.0
64025;BME280;50266;57.446;26.936;2024-02-23T03:43:10;97614.43;;;1.44;100.0
64025;BME280;50266;57.446;26.936;2024-02-23T03:44:10;97617.47;;;1.47;100.0
64025;BME280;50266;57.446;26.936;2024-02-23T03:45:10;97615.78;;;1.42;100.0
64025;BME280;50266;57.446;26.936;2024-02-23T03:46:10;97604.61;;;1.47;100.0
64025;BME280;50266;57.446;26.936;2024-02-23T03:47:10;97613.64;;;1.47;100.0
64025;BME280;50266;57.446;26.936;2024-02-23T03:48:10;97612.63;;;1.48;100.0
64025;BME280;50266;57.446;26.936;2024-02-23T03:49:10;97606.36;;;1.46;100.0
64025;BME280;50266;57.446;26.936;2024-02-23T03:50:10;97614.2;;;1.45;100.0
64025;BME280;50266;57.446;26.936;2024-02-23T03:51:10;97602.68;;;1.45;100.0
64025;BME280;50266;57.446;26.936;2024-02-23T03:52:10;97606.39;;;1.44;100.0
64025;BME280;50266;57.446;26.936;2024-02-23T03:53:10;97610.92;;;1.45;100.0
64025;BME280;50266;57.446;26.936;2024-02-23T03:54:10;97602.74;;;1.47;100.0
64025;BME280;50266;57.446;26.936;2024-02-23T03:55:10;97604.4;;;1.46;100.0
64025;BME280;50266;57.446;26.936;2024-02-23T03:56:10;97601.5;;;1.47;100.0
64025;BME280;50266;57.446;26.936;2024-02-23T03:57:10;97601.3;;;1.43;100.0
64025;BME280;50266;57.446;26.936;2024-02-23T03:58:10;97598.98;;;1.43;100.0
64025;BME280;50266;57.446;26.936;2024-02-23T03:59:10;97609.56;;;1.44;100.0
64025;BME280;50266;57.446;26.936;2024-02-23T04:00:11;97603.21;;;1.46;100.0
64025;BME280;50266;57.446;26.936;2024-02-23T04:01:10;97603.05;;;1.48;100.0
64025;BME280;50266;57.446;26.936;2024-02-23T04:02:10;97609.59;;;1.44;100.0
64025;BME280;50266;57.446;26.936;2024-02-23T04:03:10;97601.39;;;1.49;100.0
64025;BME280;50266;57.446;26.936;2024-02-23T04:04:10;97593.89;;;1.48;100.0
64025;BME280;50266;57.446;26.936;2024-02-23T04:05:10;97600.12;;;1.49;100.0
64025;BME280;50266;57.446;26.936;2024-02-23T04:06:10;97593.98;;;1.48;100.0
64025;BME280;50266;57.446;26.936;2024-02-23T04:07:10;97598.23;;;1.48;100.0
64025;BME280;50266;57.446;26.936;2024-02-23T04:08:10;97596.66;;;1.46;100.0
64025;BME280;50266;57.446;26.936;2024-02-23T04:09:10;97583.6;;;1.47;100.0
64025;BME280;50266;57.446;26.936;2024-02-23T04:10:11;97587.44;;;1.48;100.0
64025;BME280;50266;57.446;26.936;2024-02-23T04:11:12;97592.0;;;1.5;100.0
64025;BME280;50266;57.446;26.936;2024-02-23T04:12:11;97590.27;;;1.51;100.0
64025;BME280;50266;57.446;26.936;2024-02-23T04:13:11;97589.29;;;1.51;100.0
64025;BME280;50266;57.446;26.936;2024-02-23T04:14:11;97591.86;;;1.52;100.0
64025;BME280;50266;57.446;26.936;2024-02-23T04:15:11;97588.44;;;1.49;100.0
64025;BME280;50266;57.446;26.936;2024-02-23T04:16:11;97589.61;;;1.46;100.0
64025;BME280;50266;57.446;26.936;2024-02-23T04:17:11;97587.2;;;1.47;100.0
64025;BME280;50266;57.446;26.936;2024-02-23T04:18:11;97569.91;;;1.44;100.0
64025;BME280;50266;57.446;26.936;2024-02-23T04:19:11;97581.97;;;1.49;100.0
64025;BME280;50266;57.446;26.936;2024-02-23T04:20:11;97583.48;;;1.5;100.0
64025;BME280;50266;57.446;26.936;2024-02-23T04:21:11;97585.52;;;1.48;100.0
64025;BME280;50266;57.446;26.936;2024-02-23T04:22:11;97583.72;;;1.48;100.0
64025;BME280;50266;57.446;26.936;2024-02-23T04:23:11;97591.25;;;1.48;100.0
64025;BME280;50266;57.446;26.936;2024-02-23T04:24:11;97583.77;;;1.47;100.0
64025;BME280;50266;57.446;26.936;2024-02-23T04:25:11;97587.25;;;1.48;100.0
64025;BME280;50266;57.446;26.936;2024-02-23T04:26:11;97586.69;;;1.44;100.0
64025;BME280;50266;57.446;26.936;2024-02-23T04:27:11;97592.64;;;1.46;100.0
64025;BME280;50266;57.446;26.936;2024-02-23T04:28:11;97592.42;;;1.44;100.0
64025;BME280;50266;57.446;26.936;2024-02-23T04:29:11;97595.34;;;1.48;100.0
64025;BME280;50266;57.446;26.936;2024-02-23T04:30:12;97590.45;;;1.46;100.0
64025;BME280;50266;57.446;26.936;2024-02-23T04:31:11;97588.86;;;1.49;100.0
64025;BME280;50266;57.446;26.936;2024-02-23T04:32:11;97582.92;;;1.48;100.0
64025;BME280;50266;57.446;26.936;2024-02-23T04:33:11;97585.45;;;1.48;100.0
64025;BME280;50266;57.446;26.936;2024-02-23T04:34:11;97585.76;;;1.51;100.0
64025;BME280;50266;57.446;26.936;2024-02-23T04:35:11;97582.97;;;1.46;100.0
64025;BME280;50266;57.446;26.936;2024-02-23T04:36:11;97579.11;;;1.47;100.0
64025;BME280;50266;57.446;26.936;2024-02-23T04:37:11;97576.61;;;1.48;100.0
64025;BME280;50266;57.446;26.936;2024-02-23T04:38:12;97579.88;;;1.46;100.0
64025;BME280;50266;57.446;26.936;2024-02-23T04:39:12;97577.38;;;1.47;100.0
64025;BME280;50266;57.446;26.936;2024-02-23T04:40:12;97579.47;;;1.46;100.0
64025;BME280;50266;57.446;26.936;2024-02-23T04:41:12;97579.66;;;1.48;100.0
64025;BME280;50266;57.446;26.936;2024-02-23T04:42:12;97577.04;;;1.5;100.0
64025;BME280;50266;57.446;26.936;2024-02-23T04:43:12;97571.66;;;1.49;100.0
64025;BME280;50266;57.446;26.936;2024-02-23T04:44:12;97580.2;;;1.49;100.0
64025;BME280;50266;57.446;26.936;2024-02-23T04:45:12;97583.84;;;1.48;100.0
64025;BME280;50266;57.446;26.936;2024-02-23T04:46:12;97567.88;;;1.5;100.0
64025;BME280;50266;57.446;26.936;2024-02-23T04:47:12;97564.75;;;1.49;100.0
64025;BME280;50266;57.446;26.936;2024-02-23T04:48:12;97571.67;;;1.52;100.0
64025;BME280;50266;57.446;26.936;2024-02-23T04:49:12;97568.19;;;1.53;100.0
64025;BME280;50266;57.446;26.936;2024-02-23T04:50:12;97571.17;;;1.5;100.0
64025;BME280;50266;57.446;26.936;2024-02-23T04:51:12;97565.96;;;1.51;100.0
64025;BME280;50266;57.446;26.936;2024-02-23T04:52:12;97554.04;;;1.5;100.0
64025;BME280;50266;57.446;26.936;2024-02-23T04:53:12;97562.62;;;1.48;100.0
64025;BME280;50266;57.446;26.936;2024-02-23T04:54:12;97564.91;;;1.48;100.0
64025;BME280;50266;57.446;26.936;2024-02-23T04:55:12;97557.39;;;1.45;100.0
64025;BME280;50266;57.446;26.936;2024-02-23T04:56:12;97564.74;;;1.48;100.0
64025;BME280;50266;57.446;26.936;2024-02-23T04:57:12;97564.91;;;1.48;100.0
64025;BME280;50266;57.446;26.936;2024-02-23T04:58:12;97558.69;;;1.45;100.0
64025;BME280;50266;57.446;26.936;2024-02-23T04:59:12;97559.03;;;1.46;100.0
64025;BME280;50266;57.446;26.936;2024-02-23T05:00:12;97551.39;;;1.46;100.0
64025;BME280;50266;57.446;26.936;2024-02-23T05:01:12;97557.62;;;1.49;100.0
64025;BME280;50266;57.446;26.936;2024-02-23T05:02:12;97562.55;;;1.5;100.0
64025;BME280;50266;57.446;26.936;2024-02-23T05:03:12;97569.95;;;1.45;100.0
64025;BME280;50266;57.446;26.936;2024-02-23T05:04:12;97570.09;;;1.48;100.0
64025;BME280;50266;57.446;26.936;2024-02-23T05:05:12;97565.82;;;1.5;100.0
64025;BME280;50266;57.446;26.936;2024-02-23T05:06:12;97570.49;;;1.48;100.0
64025;BME280;50266;57.446;26.936;2024-02-23T05:07:12;97573.27;;;1.48;100.0
64025;BME280;50266;57.446;26.936;2024-02-23T05:08:12;97573.42;;;1.51;100.0
64025;BME280;50266;57.446;26.936;2024-02-23T05:09:12;97573.42;;;1.51;100.0
64025;BME280;50266;57.446;26.936;2024-02-23T05:10:12;97569.46;;;1.47;100.0
64025;BME280;50266;57.446;26.936;2024-02-23T05:11:14;97572.03;;;1.48;100.0
64025;BME280;50266;57.446;26.936;2024-02-23T05:12:12;97577.41;;;1.49;100.0
64025;BME280;50266;57.446;26.936;2024-02-23T05:13:12;97576.52;;;1.49;100.0
64025;BME280;50266;57.446;26.936;2024-02-23T05:14:12;97579.48;;;1.55;100.0
64025;BME280;50266;57.446;26.936;2024-02-23T05:15:12;97581.16;;;1.56;100.0
64025;BME280;50266;57.446;26.936;2024-02-23T05:16:13;97576.76;;;1.51;100.0
64025;BME280;50266;57.446;26.936;2024-02-23T05:17:12;97573.86;;;1.52;100.0
64025;BME280;50266;57.446;26.936;2024-02-23T05:18:12;97576.2;;;1.49;100.0
64025;BME280;50266;57.446;26.936;2024-02-23T05:19:12;97570.03;;;1.5;100.0